Kurdo, Arkansas
Current Conditions -  °F | °C
As of 11:15 AM on Thursday 27 Nov 2014 (Local Time) from KRNV Reporting Station
Overcast Overcast  
Wind Chill: 35°   Ceiling: 2800
Heat Index: 41°   Visibility: 10mi
Dew Point: 32°   Wind: 12mph
Humidity: 69%   Direction: 340°NNW
Pressure: 30.53"   Gusts: NA
Location:  33.8911°N, 91.2569°W
Report Text: KRNV 271715Z AUTO 34010KT 10SM OVC028 05/00 A3053 RMK AO2 T00520000
Loading
Personal Weather Stations






























Interactive Weather Map New forecast layout! Learn more

10-Day Weather Forecast

Advertisements
Track Severe Weather on mobile